createdAt,value
2023-04-28T00:02:02.012Z,48.40
2023-04-28T00:04:33.601Z,49.17
2023-04-28T00:07:05.050Z,50.85
2023-04-28T00:09:36.524Z,46.72
2023-04-28T00:12:08.549Z,43.97
2023-04-28T00:14:39.886Z,53.90
2023-04-28T00:17:12.203Z,48.78
2023-04-28T00:19:43.940Z,25.13
2023-04-28T00:22:15.170Z,44.30
2023-04-28T00:24:46.364Z,49.85
2023-04-28T00:27:17.349Z,48.53
2023-04-28T00:29:48.741Z,48.28
2023-04-28T00:32:27.746Z,22.08
2023-04-28T00:35:00.228Z,49.42
2023-04-28T00:37:31.431Z,46.55
2023-04-28T00:40:02.617Z,49.30
2023-04-28T00:42:33.793Z,52.38
2023-04-28T00:45:07.721Z,46.33
2023-04-28T00:50:11.938Z,33.20
2023-04-28T00:52:42.932Z,45.10
2023-04-28T00:55:14.907Z,26.65
2023-04-28T00:57:47.910Z,26.42
2023-04-28T01:00:19.376Z,50.17
2023-04-28T01:02:51.238Z,24.10
2023-04-28T01:05:22.951Z,47.78
2023-04-28T01:07:54.338Z,49.83
2023-04-28T01:10:25.700Z,36.58
2023-04-28T01:12:57.178Z,26.05
2023-04-28T01:15:28.794Z,49.47
2023-04-28T01:18:00.395Z,34.70
2023-04-28T01:20:32.951Z,26.20
2023-04-28T01:23:04.434Z,36.65
2023-04-28T01:25:38.019Z,28.58
2023-04-28T01:30:39.869Z,48.55
2023-04-28T01:33:11.430Z,34.80
2023-04-28T01:35:43.130Z,46.65
2023-04-28T01:38:14.364Z,50.55
2023-04-28T01:40:48.565Z,51.83
2023-04-28T01:43:19.560Z,54.25
2023-04-28T01:45:50.705Z,57.33
2023-04-28T01:48:22.005Z,68.13
2023-04-28T01:50:53.336Z,84.65
2023-04-28T01:53:24.685Z,73.95
2023-04-28T01:55:57.813Z,24.40
2023-04-28T01:58:30.751Z,49.77
2023-04-28T02:01:25.658Z,49.67
2023-04-28T02:03:57.649Z,61.03
2023-04-28T02:06:29.565Z,58.90
2023-04-28T02:09:01.426Z,71.95
2023-04-28T02:11:32.488Z,75.47
2023-04-28T02:14:03.588Z,75.88
2023-04-28T02:16:35.445Z,77.63
2023-04-28T02:19:09.369Z,73.43
2023-04-28T02:21:40.563Z,74.35
2023-04-28T02:24:12.819Z,77.47
2023-04-28T02:26:46.989Z,83.22
2023-04-28T02:29:18.686Z,32.78
2023-04-28T02:34:35.854Z,75.53
2023-04-28T02:37:08.239Z,81.25
2023-04-28T02:39:39.285Z,87.57
2023-04-28T02:42:10.318Z,90.53
2023-04-28T02:44:41.284Z,74.78
2023-04-28T02:47:12.921Z,87.25
2023-04-28T02:49:45.174Z,83.95
2023-04-28T02:52:16.761Z,86.65
2023-04-28T02:54:50.707Z,97.50
2023-04-28T02:57:23.911Z,86.35
2023-04-28T02:59:55.411Z,87.55
2023-04-28T03:02:27.398Z,117.75
2023-04-28T03:04:58.604Z,99.90
2023-04-28T03:07:30.288Z,93.03
2023-04-28T03:10:01.717Z,88.57
2023-04-28T03:12:38.447Z,98.75
2023-04-28T03:15:12.744Z,94.18
2023-04-28T03:17:45.635Z,88.07
2023-04-28T03:20:37.381Z,82.40
2023-04-28T03:23:09.037Z,88.68
2023-04-28T03:25:40.527Z,91.63
2023-04-28T03:28:12.679Z,93.40
2023-04-28T03:30:46.578Z,88.85
2023-04-28T03:33:17.936Z,94.63
2023-04-28T03:35:51.655Z,82.03
2023-04-28T03:38:24.184Z,98.20
2023-04-28T03:40:55.505Z,86.72
2023-04-28T03:43:37.327Z,83.57
2023-04-28T03:46:25.596Z,83.60
2023-04-28T03:48:57.158Z,76.25
2023-04-28T03:51:29.545Z,82.38
2023-04-28T03:54:00.570Z,83.65
2023-04-28T03:56:51.757Z,89.28
2023-04-28T03:59:23.331Z,91.55
2023-04-28T04:01:58.559Z,103.28
2023-04-28T04:04:30.493Z,95.78
2023-04-28T04:07:02.154Z,105.25
2023-04-28T04:09:35.094Z,97.22
2023-04-28T04:12:26.422Z,97.88
2023-04-28T04:15:17.206Z,93.60
2023-04-28T04:17:50.317Z,97.68
2023-04-28T04:20:22.981Z,109.03
2023-04-28T04:22:55.797Z,104.78
2023-04-28T04:25:27.045Z,110.13
2023-04-28T04:28:02.913Z,110.60
2023-04-28T04:31:14.841Z,113.68
2023-04-28T04:33:51.027Z,110.53
2023-04-28T04:36:24.411Z,102.53
2023-04-28T04:38:55.722Z,117.35
2023-04-28T04:41:29.081Z,121.55
2023-04-28T04:44:17.257Z,113.10
2023-04-28T04:49:42.383Z,108.63
2023-04-28T04:52:14.909Z,109.57
2023-04-28T04:55:05.858Z,104.85
2023-04-28T04:57:56.948Z,111.70
2023-04-28T05:00:46.405Z,115.90
2023-04-28T05:03:17.961Z,110.32
2023-04-28T05:05:55.384Z,106.18
2023-04-28T05:08:41.234Z,109.22
2023-04-28T05:11:12.581Z,107.88
2023-04-28T05:13:44.903Z,104.95
2023-04-28T05:16:16.715Z,102.57
2023-04-28T05:18:53.009Z,103.93
2023-04-28T05:21:25.064Z,101.00
2023-04-28T05:24:16.067Z,99.10
2023-04-28T05:26:52.807Z,108.57
2023-04-28T05:29:25.060Z,101.32
2023-04-28T05:31:57.791Z,84.70
2023-04-28T05:34:29.416Z,107.05
2023-04-28T05:37:20.236Z,99.90
2023-04-28T05:40:11.540Z,112.85
2023-04-28T05:42:43.587Z,95.68
2023-04-28T05:45:34.641Z,96.22
2023-04-28T05:48:26.581Z,77.63
2023-04-28T05:50:59.539Z,50.15
2023-04-28T05:53:53.369Z,91.35
2023-04-28T05:56:46.470Z,84.50
2023-04-28T05:59:22.489Z,74.88
2023-04-28T06:01:54.146Z,83.45
2023-04-28T06:04:25.797Z,87.28
2023-04-28T06:07:03.457Z,93.93
2023-04-28T06:09:36.608Z,86.55
2023-04-28T06:12:08.053Z,99.10
2023-04-28T06:15:02.107Z,75.95
2023-04-28T06:17:37.786Z,83.05
2023-04-28T06:20:10.110Z,85.47
2023-04-28T06:22:43.179Z,92.63
2023-04-28T06:25:14.327Z,94.38
2023-04-28T06:27:51.941Z,87.55
2023-04-28T06:30:27.977Z,90.75
2023-04-28T06:32:59.451Z,91.40
2023-04-28T06:35:33.788Z,86.97
2023-04-28T06:38:06.863Z,99.05
2023-04-28T06:40:38.372Z,97.13
2023-04-28T06:43:10.254Z,91.60
2023-04-28T06:46:02.997Z,95.88
2023-04-28T06:48:36.827Z,99.88
2023-04-28T06:51:10.069Z,102.57
2023-04-28T06:53:41.438Z,99.18
2023-04-28T06:59:26.655Z,98.80
2023-04-28T07:01:58.756Z,97.38
2023-04-28T07:04:29.830Z,100.82
2023-04-28T07:07:25.242Z,91.45
2023-04-28T07:09:56.578Z,95.32
2023-04-28T07:12:27.704Z,97.78
2023-04-28T07:15:22.586Z,87.82
2023-04-28T07:17:57.399Z,88.32
2023-04-28T07:20:32.030Z,90.90
2023-04-28T07:25:35.157Z,46.47
2023-04-28T07:28:10.433Z,78.68
2023-04-28T07:30:41.661Z,80.53
2023-04-28T07:33:13.182Z,80.60
2023-04-28T07:35:44.450Z,85.93
2023-04-28T07:38:15.630Z,72.28
2023-04-28T07:40:48.255Z,70.55
2023-04-28T07:43:21.045Z,73.18
2023-04-28T07:45:52.142Z,78.95
2023-04-28T07:48:24.194Z,67.43
2023-04-28T07:50:55.327Z,71.40
2023-04-28T07:53:31.590Z,72.18
2023-04-28T07:56:02.752Z,73.53
2023-04-28T07:58:55.543Z,85.80
2023-04-28T08:01:27.002Z,92.22
2023-04-28T08:03:58.706Z,77.97
2023-04-28T08:06:33.213Z,82.13
2023-04-28T08:09:26.789Z,86.45
2023-04-28T08:11:58.122Z,78.72
2023-04-28T08:14:31.117Z,81.50
2023-04-28T08:17:02.457Z,71.65
2023-04-28T08:19:35.182Z,71.38
2023-04-28T08:22:25.916Z,74.03
2023-04-28T08:25:00.890Z,79.07
2023-04-28T08:27:51.585Z,53.22
2023-04-28T08:30:45.092Z,67.75
2023-04-28T08:33:37.414Z,75.70
2023-04-28T08:36:10.054Z,54.42
2023-04-28T08:38:43.154Z,41.10
2023-04-28T08:41:24.346Z,41.30
2023-04-28T08:43:55.788Z,67.10
2023-04-28T08:46:48.430Z,59.30
2023-04-28T08:49:40.548Z,67.22
2023-04-28T08:52:15.393Z,69.50
2023-04-28T08:54:50.929Z,79.55
2023-04-28T08:57:23.710Z,73.20
2023-04-28T08:59:56.449Z,77.60
2023-04-28T09:02:28.664Z,69.18
2023-04-28T09:05:00.344Z,70.70
2023-04-28T09:07:31.413Z,76.10
2023-04-28T09:10:23.107Z,77.32
2023-04-28T09:12:56.453Z,76.38
2023-04-28T09:15:39.465Z,61.58
2023-04-28T09:18:10.876Z,69.07
2023-04-28T09:20:42.235Z,73.38
2023-04-28T09:23:23.385Z,65.65
2023-04-28T09:26:10.605Z,70.47
2023-04-28T09:28:42.909Z,67.65
2023-04-28T09:31:52.567Z,80.65
2023-04-28T09:34:49.056Z,77.28
2023-04-28T09:37:25.146Z,69.82
2023-04-28T09:39:57.123Z,82.13
2023-04-28T09:42:38.416Z,90.93
2023-04-28T09:45:15.500Z,78.80
2023-04-28T09:48:15.395Z,52.15
2023-04-28T09:50:49.480Z,34.53
2023-04-28T09:53:23.559Z,63.10
2023-04-28T09:56:17.989Z,77.38
2023-04-28T09:59:11.202Z,41.13
2023-04-28T10:01:44.418Z,1999.90
2023-04-28T10:04:17.830Z,1212.85
2023-04-28T10:07:09.269Z,1999.90
2023-04-28T10:09:41.078Z,1725.43
2023-04-28T10:12:15.581Z,1467.43
2023-04-28T10:14:52.629Z,195.43
2023-04-28T10:20:18.524Z,185.90
2023-04-28T10:22:59.845Z,91.47
2023-04-28T10:25:32.889Z,95.00
2023-04-28T10:28:07.571Z,181.98
2023-04-28T10:30:39.724Z,67.40
2023-04-28T10:33:16.757Z,58.35
2023-04-28T10:35:49.620Z,74.35
2023-04-28T10:38:23.540Z,71.85
2023-04-28T10:40:55.988Z,192.90
2023-04-28T10:43:35.857Z,122.43
2023-04-28T10:46:09.194Z,127.68
2023-04-28T10:48:47.012Z,138.82
2023-04-28T10:51:19.229Z,134.88
2023-04-28T10:53:51.253Z,117.95
2023-04-28T10:56:27.048Z,104.70
2023-04-28T10:58:59.349Z,126.70
2023-04-28T11:01:50.575Z,115.68
2023-04-28T11:04:24.337Z,85.13
2023-04-28T11:07:32.000Z,112.72
2023-04-28T11:10:03.026Z,111.15
2023-04-28T11:12:37.342Z,102.97
2023-04-28T11:15:17.392Z,74.45
2023-04-28T11:17:51.014Z,74.82
2023-04-28T11:20:25.064Z,75.43
2023-04-28T11:22:56.619Z,78.22
2023-04-28T11:25:29.114Z,78.22
2023-04-28T11:28:09.515Z,173.40
2023-04-28T11:30:46.626Z,115.28
2023-04-28T11:33:18.299Z,89.78
2023-04-28T11:35:53.505Z,56.50
2023-04-28T11:38:25.946Z,54.53
2023-04-28T11:43:48.454Z,72.07
2023-04-28T11:46:23.726Z,56.80
2023-04-28T11:49:06.425Z,71.78
2023-04-28T11:51:47.609Z,70.38
2023-04-28T11:54:39.714Z,87.60
2023-04-28T11:57:19.702Z,80.00
2023-04-28T11:59:51.363Z,76.50
2023-04-28T12:02:35.421Z,90.57
2023-04-28T12:05:12.507Z,100.10
2023-04-28T12:07:47.062Z,81.00
2023-04-28T12:10:39.170Z,74.93
2023-04-28T12:13:20.984Z,71.60
2023-04-28T12:15:54.818Z,78.22
2023-04-28T12:18:25.921Z,79.47
2023-04-28T12:20:57.144Z,85.43
2023-04-28T12:23:49.409Z,72.20
2023-04-28T12:26:27.657Z,75.20
2023-04-28T12:29:00.440Z,78.53
2023-04-28T12:31:37.080Z,78.22
2023-04-28T12:36:38.955Z,69.80
2023-04-28T12:39:18.268Z,76.18
2023-04-28T12:42:13.280Z,70.20
2023-04-28T12:45:05.286Z,80.65
2023-04-28T12:48:00.419Z,83.75
2023-04-28T12:53:45.357Z,69.45
2023-04-28T12:56:58.748Z,76.90
2023-04-28T12:59:31.266Z,76.63
2023-04-28T13:02:13.156Z,76.05
2023-04-28T13:04:48.257Z,72.43
2023-04-28T13:07:19.657Z,82.68
2023-04-28T13:10:23.951Z,73.75
2023-04-28T13:13:15.290Z,89.25
2023-04-28T13:15:47.970Z,72.85
2023-04-28T13:18:39.857Z,81.65
2023-04-28T13:21:11.770Z,74.03
2023-04-28T13:24:02.787Z,51.30
2023-04-28T13:26:54.564Z,71.43
2023-04-28T13:29:46.673Z,72.63
2023-04-28T13:32:41.351Z,43.45
2023-04-28T13:35:12.711Z,36.80
2023-04-28T13:37:55.754Z,96.20
2023-04-28T13:42:58.927Z,66.05
2023-04-28T13:45:52.165Z,78.63
2023-04-28T13:48:23.988Z,80.57
2023-04-28T13:50:58.124Z,49.72
2023-04-28T13:53:52.158Z,86.30
2023-04-28T13:56:24.906Z,95.47
2023-04-28T13:58:57.808Z,84.00
2023-04-28T14:01:30.235Z,86.07
2023-04-28T14:04:03.505Z,72.90
2023-04-28T14:06:35.010Z,79.55
2023-04-28T14:09:06.096Z,81.00
2023-04-28T14:11:39.354Z,79.95
2023-04-28T14:14:10.597Z,82.97
2023-04-28T14:16:42.097Z,82.20
2023-04-28T14:19:19.597Z,62.33
2023-04-28T14:22:18.712Z,61.53
2023-04-28T14:25:11.197Z,84.30
2023-04-28T14:30:57.479Z,55.28
2023-04-28T14:33:28.671Z,86.60
2023-04-28T14:36:01.415Z,78.07
2023-04-28T14:39:14.828Z,60.90
2023-04-28T14:42:08.568Z,74.90
2023-04-28T14:44:39.831Z,79.65
2023-04-28T14:47:11.492Z,73.88
2023-04-28T14:50:03.804Z,38.70
2023-04-28T14:53:01.783Z,72.65
2023-04-28T14:55:33.270Z,71.70
2023-04-28T14:58:07.469Z,73.82
2023-04-28T15:00:45.627Z,57.78
2023-04-28T15:03:17.014Z,69.85
2023-04-28T15:06:27.863Z,70.18
2023-04-28T15:08:59.093Z,47.03
2023-04-28T15:11:49.982Z,67.07
2023-04-28T15:14:22.719Z,70.43
2023-04-28T15:16:54.546Z,77.97
2023-04-28T15:19:25.744Z,63.15
2023-04-28T15:21:58.340Z,61.47
2023-04-28T15:24:32.372Z,61.55
2023-04-28T15:27:05.807Z,58.40
2023-04-28T15:29:37.085Z,58.65
2023-04-28T15:32:31.157Z,57.00
2023-04-28T15:35:07.061Z,57.60
2023-04-28T15:37:43.442Z,57.53
2023-04-28T15:40:15.526Z,65.20
2023-04-28T15:43:06.629Z,44.95
2023-04-28T15:45:39.270Z,58.03
2023-04-28T15:48:13.849Z,52.88
2023-04-28T15:50:45.015Z,53.03
2023-04-28T15:53:17.556Z,61.83
2023-04-28T15:55:50.094Z,64.35
2023-04-28T15:58:22.762Z,71.57
2023-04-28T16:00:54.096Z,56.28
2023-04-28T16:03:25.829Z,63.03
2023-04-28T16:05:57.288Z,60.75
2023-04-28T16:08:28.901Z,64.05
2023-04-28T16:11:01.114Z,65.50
2023-04-28T16:13:34.776Z,64.18
2023-04-28T16:16:09.146Z,62.65
2023-04-28T16:18:55.993Z,65.22
2023-04-28T16:21:28.234Z,76.82
2023-04-28T16:26:43.351Z,71.32
2023-04-28T16:29:14.648Z,53.78
2023-04-28T16:31:48.262Z,60.47
2023-04-28T16:34:20.884Z,41.95
2023-04-28T16:36:52.541Z,55.72
2023-04-28T16:39:26.450Z,69.55
2023-04-28T16:44:29.173Z,56.97
2023-04-28T16:47:01.011Z,60.78
2023-04-28T16:49:33.411Z,67.30
2023-04-28T16:52:43.751Z,57.60
2023-04-28T16:55:37.278Z,55.03
2023-04-28T16:58:09.141Z,63.40
2023-04-28T17:00:59.940Z,69.50
2023-04-28T17:03:52.210Z,61.10
2023-04-28T17:06:23.537Z,60.47
2023-04-28T17:11:40.517Z,56.13
2023-04-28T17:14:11.568Z,53.85
2023-04-28T17:17:03.554Z,64.53
2023-04-28T17:19:37.242Z,63.37
2023-04-28T17:22:08.742Z,60.90
2023-04-28T17:24:47.324Z,51.40
2023-04-28T17:27:18.879Z,57.17
2023-04-28T17:30:09.820Z,68.88
2023-04-28T17:32:41.108Z,64.70
2023-04-28T17:35:33.601Z,66.95
2023-04-28T17:38:24.681Z,54.03
2023-04-28T17:40:58.355Z,48.90
2023-04-28T17:43:29.482Z,33.05
2023-04-28T17:46:01.034Z,58.42
2023-04-28T17:48:33.842Z,63.35
2023-04-28T17:53:36.556Z,43.33
2023-04-28T17:56:08.528Z,56.25
2023-04-28T17:58:39.779Z,61.30
2023-04-28T18:01:12.585Z,41.63
2023-04-28T18:03:46.507Z,35.17
2023-04-28T18:06:17.876Z,51.28
2023-04-28T18:08:48.945Z,57.90
2023-04-28T18:11:20.171Z,59.40
2023-04-28T18:14:12.390Z,68.07
2023-04-28T18:17:03.621Z,81.28
2023-04-28T18:19:34.764Z,83.35
2023-04-28T18:22:05.827Z,63.65
2023-04-28T18:24:36.788Z,75.97
2023-04-28T18:27:15.608Z,28.88
2023-04-28T18:29:46.897Z,36.53
2023-04-28T18:32:18.156Z,60.50
2023-04-28T18:34:49.588Z,72.43
2023-04-28T18:37:22.714Z,85.75
2023-04-28T18:39:58.085Z,84.07
2023-04-28T18:42:29.189Z,74.93
2023-04-28T18:45:00.372Z,83.75
2023-04-28T18:47:32.667Z,93.13
2023-04-28T18:50:04.126Z,100.90
2023-04-28T18:52:35.373Z,95.90
2023-04-28T18:55:06.615Z,50.45
2023-04-28T18:57:38.297Z,81.28
2023-04-28T19:00:11.337Z,90.63
2023-04-28T19:02:42.637Z,89.63
2023-04-28T19:05:14.286Z,108.43
2023-04-28T19:07:48.345Z,47.17
2023-04-28T19:10:19.896Z,32.80
2023-04-28T19:12:50.903Z,59.22
2023-04-28T19:15:23.249Z,55.10
2023-04-28T19:17:54.809Z,74.25
2023-04-28T19:20:26.043Z,39.47
2023-04-28T19:22:58.236Z,61.22
2023-04-28T19:25:32.258Z,40.85
2023-04-28T19:28:03.591Z,38.42
2023-04-28T19:30:35.196Z,45.72
2023-04-28T19:33:06.479Z,47.10
2023-04-28T19:35:38.033Z,42.13
2023-04-28T19:38:11.428Z,43.92
2023-04-28T19:40:42.528Z,43.03
2023-04-28T19:43:14.552Z,35.70
2023-04-28T19:45:45.938Z,17.20
2023-04-28T19:48:17.213Z,11.73
2023-04-28T19:50:48.473Z,14.50
2023-04-28T19:53:20.916Z,13.63
2023-04-28T19:55:52.353Z,4.40
2023-04-28T19:58:24.036Z,5.88
2023-04-28T20:00:55.518Z,6.00
2023-04-28T20:03:26.825Z,4.15
2023-04-28T20:05:58.242Z,6.43
2023-04-28T20:08:30.085Z,12.80
2023-04-28T20:11:01.459Z,2.72
2023-04-28T20:13:33.114Z,7.00
2023-04-28T20:16:06.014Z,2.65
2023-04-28T20:18:38.864Z,4.13
2023-04-28T20:21:11.513Z,6.03
2023-04-28T20:23:42.855Z,4.65
2023-04-28T20:26:17.706Z,1.75
2023-04-28T20:28:50.137Z,2.58
2023-04-28T20:31:21.153Z,3.75
2023-04-28T20:34:12.209Z,2.72
2023-04-28T20:36:43.286Z,7.57
2023-04-28T20:39:14.877Z,7.25
2023-04-28T20:41:46.046Z,3.17
2023-04-28T20:44:17.383Z,2.30
2023-04-28T20:46:48.822Z,4.70
2023-04-28T20:49:21.459Z,2.53
2023-04-28T20:51:52.726Z,1.83
2023-04-28T20:54:23.965Z,2.30
2023-04-28T20:57:15.930Z,1.85
2023-04-28T20:59:47.653Z,1.63
2023-04-28T21:02:19.177Z,2.65
2023-04-28T21:04:50.432Z,1.92
2023-04-28T21:07:21.922Z,3.22
2023-04-28T21:09:53.670Z,1.48
2023-04-28T21:12:25.909Z,5.03
2023-04-28T21:15:00.965Z,2.30
2023-04-28T21:17:32.608Z,1.33
2023-04-28T21:20:04.032Z,1.25
2023-04-28T21:22:35.850Z,2.88
2023-04-28T21:25:08.548Z,2.20
2023-04-28T21:27:39.875Z,1.98
2023-04-28T21:30:30.936Z,1.95
2023-04-28T21:33:02.370Z,2.42
2023-04-28T21:35:33.736Z,3.08
2023-04-28T21:38:07.401Z,4.15
2023-04-28T21:40:38.687Z,2.83
2023-04-28T21:43:10.012Z,2.05
2023-04-28T21:46:02.407Z,1.83
2023-04-28T21:48:33.806Z,6.18
2023-04-28T21:51:05.035Z,3.22
2023-04-28T21:53:36.309Z,1.98
2023-04-28T21:56:07.589Z,1.55
2023-04-28T21:58:38.930Z,3.45
2023-04-28T22:01:10.387Z,5.00
2023-04-28T22:03:42.155Z,2.33
2023-04-28T22:06:14.560Z,168.00
2023-04-28T22:08:45.601Z,906.95
2023-04-28T22:11:16.811Z,87.65
2023-04-28T22:13:48.060Z,1022.63
2023-04-28T22:16:19.312Z,244.52
2023-04-28T22:18:50.935Z,29.92
2023-04-28T22:21:22.625Z,22.75
2023-04-28T22:23:54.266Z,8.52
2023-04-28T22:26:38.405Z,14.38
2023-04-28T22:29:29.427Z,8.05
2023-04-28T22:32:01.612Z,3.63
2023-04-28T22:34:32.767Z,2.75
2023-04-28T22:37:23.732Z,7.57
2023-04-28T22:39:54.841Z,4.30
2023-04-28T22:42:25.965Z,3.30
2023-04-28T22:44:57.653Z,4.32
2023-04-28T22:47:30.776Z,4.85
2023-04-28T22:50:26.770Z,3.58
2023-04-28T22:53:27.043Z,4.13
2023-04-28T22:55:59.773Z,3.05
2023-04-28T22:58:31.175Z,4.97
2023-04-28T23:01:06.321Z,3.45
2023-04-28T23:03:57.589Z,3.20
2023-04-28T23:06:30.603Z,5.78
2023-04-28T23:09:01.698Z,7.32
2023-04-28T23:11:33.252Z,8.88
2023-04-28T23:14:05.086Z,5.53
2023-04-28T23:16:56.122Z,6.82
2023-04-28T23:19:47.295Z,4.05
2023-04-28T23:22:18.594Z,6.55
2023-04-28T23:24:49.949Z,4.03
2023-04-28T23:27:41.014Z,6.20
2023-04-28T23:30:32.241Z,5.18
2023-04-28T23:33:03.384Z,3.92
2023-04-28T23:35:34.825Z,6.32
2023-04-28T23:38:06.789Z,6.15
2023-04-28T23:40:43.733Z,4.53
2023-04-28T23:43:16.035Z,6.07
2023-04-28T23:45:48.524Z,3.90
2023-04-28T23:48:23.071Z,3.85
2023-04-28T23:50:56.421Z,6.47
2023-04-28T23:54:07.160Z,5.47
2023-04-28T23:56:39.780Z,9.02
2023-04-28T23:59:10.977Z,5.45
